sensor_id;sensor_type;location;lat;lon;timestamp;P1;durP1;ratioP1;P2;durP2;ratioP2
25525;SDS011;13424;48.424;11.258;2023-08-20T00:01:21;9.15;;;7.13;;
25525;SDS011;13424;48.424;11.258;2023-08-20T00:03:51;9.27;;;7.28;;
25525;SDS011;13424;48.424;11.258;2023-08-20T00:06:18;11.93;;;7.53;;
25525;SDS011;13424;48.424;11.258;2023-08-20T00:08:45;12.95;;;7.90;;
25525;SDS011;13424;48.424;11.258;2023-08-20T00:11:12;13.18;;;7.88;;
25525;SDS011;13424;48.424;11.258;2023-08-20T00:13:39;11.77;;;7.20;;
25525;SDS011;13424;48.424;11.258;2023-08-20T00:16:05;13.10;;;8.07;;
25525;SDS011;13424;48.424;11.258;2023-08-20T00:18:32;23.60;;;8.30;;
25525;SDS011;13424;48.424;11.258;2023-08-20T00:21:07;10.15;;;7.78;;
25525;SDS011;13424;48.424;11.258;2023-08-20T00:23:35;12.70;;;7.75;;
25525;SDS011;13424;48.424;11.258;2023-08-20T00:26:01;8.90;;;7.38;;
25525;SDS011;13424;48.424;11.258;2023-08-20T00:28:28;10.10;;;7.65;;
25525;SDS011;13424;48.424;11.258;2023-08-20T00:30:54;11.43;;;8.10;;
25525;SDS011;13424;48.424;11.258;2023-08-20T00:33:20;15.40;;;8.32;;
25525;SDS011;13424;48.424;11.258;2023-08-20T00:35:46;15.73;;;10.57;;
25525;SDS011;13424;48.424;11.258;2023-08-20T00:38:13;11.68;;;8.65;;
25525;SDS011;13424;48.424;11.258;2023-08-20T00:40:39;15.40;;;9.13;;
25525;SDS011;13424;48.424;11.258;2023-08-20T00:43:04;11.27;;;9.25;;
25525;SDS011;13424;48.424;11.258;2023-08-20T00:45:31;12.43;;;8.95;;
25525;SDS011;13424;48.424;11.258;2023-08-20T00:47:57;15.10;;;9.48;;
25525;SDS011;13424;48.424;11.258;2023-08-20T00:50:23;10.68;;;8.18;;
25525;SDS011;13424;48.424;11.258;2023-08-20T00:52:50;12.30;;;8.60;;
25525;SDS011;13424;48.424;11.258;2023-08-20T00:55:16;14.63;;;9.05;;
25525;SDS011;13424;48.424;11.258;2023-08-20T00:57:42;19.02;;;9.25;;
25525;SDS011;13424;48.424;11.258;2023-08-20T01:00:10;13.27;;;9.23;;
25525;SDS011;13424;48.424;11.258;2023-08-20T01:02:37;13.48;;;9.05;;
25525;SDS011;13424;48.424;11.258;2023-08-20T01:05:05;15.30;;;8.93;;
25525;SDS011;13424;48.424;11.258;2023-08-20T01:08:04;13.82;;;9.10;;
25525;SDS011;13424;48.424;11.258;2023-08-20T01:11:12;12.23;;;8.02;;
25525;SDS011;13424;48.424;11.258;2023-08-20T01:13:46;14.30;;;9.13;;
25525;SDS011;13424;48.424;11.258;2023-08-20T01:16:12;10.20;;;8.48;;
25525;SDS011;13424;48.424;11.258;2023-08-20T01:18:38;10.45;;;8.18;;
25525;SDS011;13424;48.424;11.258;2023-08-20T01:21:14;10.82;;;8.50;;
25525;SDS011;13424;48.424;11.258;2023-08-20T01:27:18;13.80;;;10.18;;
25525;SDS011;13424;48.424;11.258;2023-08-20T01:29:45;19.17;;;9.32;;
25525;SDS011;13424;48.424;11.258;2023-08-20T01:32:11;13.00;;;8.90;;
25525;SDS011;13424;48.424;11.258;2023-08-20T01:34:38;18.23;;;9.55;;
25525;SDS011;13424;48.424;11.258;2023-08-20T01:37:05;10.50;;;9.13;;
25525;SDS011;13424;48.424;11.258;2023-08-20T01:39:30;14.32;;;9.27;;
25525;SDS011;13424;48.424;11.258;2023-08-20T01:41:57;20.50;;;10.73;;
25525;SDS011;13424;48.424;11.258;2023-08-20T01:44:25;13.93;;;9.88;;
25525;SDS011;13424;48.424;11.258;2023-08-20T01:51:17;11.93;;;8.88;;
25525;SDS011;13424;48.424;11.258;2023-08-20T01:53:43;15.57;;;9.38;;
25525;SDS011;13424;48.424;11.258;2023-08-20T01:56:12;11.43;;;9.57;;
25525;SDS011;13424;48.424;11.258;2023-08-20T01:58:39;17.20;;;10.13;;
25525;SDS011;13424;48.424;11.258;2023-08-20T02:01:05;12.95;;;9.52;;
25525;SDS011;13424;48.424;11.258;2023-08-20T02:03:31;14.10;;;10.00;;
25525;SDS011;13424;48.424;11.258;2023-08-20T02:05:57;15.73;;;10.77;;
25525;SDS011;13424;48.424;11.258;2023-08-20T02:08:23;16.25;;;10.45;;
25525;SDS011;13424;48.424;11.258;2023-08-20T02:10:49;15.90;;;10.52;;
25525;SDS011;13424;48.424;11.258;2023-08-20T02:13:24;14.70;;;10.43;;
25525;SDS011;13424;48.424;11.258;2023-08-20T02:15:58;15.82;;;10.02;;
25525;SDS011;13424;48.424;11.258;2023-08-20T02:18:26;13.40;;;9.90;;
25525;SDS011;13424;48.424;11.258;2023-08-20T02:20:53;14.70;;;9.55;;
25525;SDS011;13424;48.424;11.258;2023-08-20T02:23:19;16.17;;;10.23;;
25525;SDS011;13424;48.424;11.258;2023-08-20T02:25:46;12.27;;;9.05;;
25525;SDS011;13424;48.424;11.258;2023-08-20T02:28:12;16.25;;;10.00;;
25525;SDS011;13424;48.424;11.258;2023-08-20T02:30:45;14.30;;;9.40;;
25525;SDS011;13424;48.424;11.258;2023-08-20T02:33:12;14.88;;;9.00;;
25525;SDS011;13424;48.424;11.258;2023-08-20T02:35:38;15.05;;;9.80;;
25525;SDS011;13424;48.424;11.258;2023-08-20T02:38:05;12.15;;;10.73;;
25525;SDS011;13424;48.424;11.258;2023-08-20T02:40:32;15.25;;;10.20;;
25525;SDS011;13424;48.424;11.258;2023-08-20T02:43:04;17.65;;;10.98;;
25525;SDS011;13424;48.424;11.258;2023-08-20T02:45:30;15.57;;;11.40;;
25525;SDS011;13424;48.424;11.258;2023-08-20T02:47:57;13.05;;;9.98;;
25525;SDS011;13424;48.424;11.258;2023-08-20T02:50:23;19.67;;;11.40;;
25525;SDS011;13424;48.424;11.258;2023-08-20T02:52:49;15.52;;;10.13;;
25525;SDS011;13424;48.424;11.258;2023-08-20T02:55:15;13.82;;;9.77;;
25525;SDS011;13424;48.424;11.258;2023-08-20T02:57:40;14.40;;;10.77;;
25525;SDS011;13424;48.424;11.258;2023-08-20T03:04:32;12.57;;;9.27;;
25525;SDS011;13424;48.424;11.258;2023-08-20T03:06:58;16.55;;;9.48;;
25525;SDS011;13424;48.424;11.258;2023-08-20T03:12:53;15.93;;;10.00;;
25525;SDS011;13424;48.424;11.258;2023-08-20T03:15:19;22.88;;;9.77;;
25525;SDS011;13424;48.424;11.258;2023-08-20T03:17:45;14.48;;;9.55;;
25525;SDS011;13424;48.424;11.258;2023-08-20T03:23:19;10.45;;;9.07;;
25525;SDS011;13424;48.424;11.258;2023-08-20T03:25:45;10.95;;;9.43;;
25525;SDS011;13424;48.424;11.258;2023-08-20T03:28:10;12.70;;;9.93;;
25525;SDS011;13424;48.424;11.258;2023-08-20T03:30:37;14.07;;;9.93;;
25525;SDS011;13424;48.424;11.258;2023-08-20T03:33:03;14.93;;;10.55;;
25525;SDS011;13424;48.424;11.258;2023-08-20T03:35:32;15.00;;;9.68;;
25525;SDS011;13424;48.424;11.258;2023-08-20T03:37:58;13.80;;;9.77;;
25525;SDS011;13424;48.424;11.258;2023-08-20T03:40:24;15.63;;;10.60;;
25525;SDS011;13424;48.424;11.258;2023-08-20T03:42:51;11.35;;;9.15;;
25525;SDS011;13424;48.424;11.258;2023-08-20T03:45:17;12.05;;;9.32;;
25525;SDS011;13424;48.424;11.258;2023-08-20T03:47:43;19.88;;;9.40;;
25525;SDS011;13424;48.424;11.258;2023-08-20T03:50:12;16.20;;;9.98;;
25525;SDS011;13424;48.424;11.258;2023-08-20T03:52:43;13.38;;;9.68;;
25525;SDS011;13424;48.424;11.258;2023-08-20T03:55:10;12.98;;;9.95;;
25525;SDS011;13424;48.424;11.258;2023-08-20T03:57:36;16.40;;;10.02;;
25525;SDS011;13424;48.424;11.258;2023-08-20T04:00:04;14.85;;;10.05;;
25525;SDS011;13424;48.424;11.258;2023-08-20T04:02:40;14.80;;;10.32;;
25525;SDS011;13424;48.424;11.258;2023-08-20T04:05:06;14.65;;;9.43;;
25525;SDS011;13424;48.424;11.258;2023-08-20T04:07:32;16.52;;;10.25;;
25525;SDS011;13424;48.424;11.258;2023-08-20T04:09:59;11.57;;;9.55;;
25525;SDS011;13424;48.424;11.258;2023-08-20T04:15:51;16.17;;;9.48;;
25525;SDS011;13424;48.424;11.258;2023-08-20T04:18:17;18.75;;;10.07;;
25525;SDS011;13424;48.424;11.258;2023-08-20T04:20:43;18.17;;;11.40;;
25525;SDS011;13424;48.424;11.258;2023-08-20T04:23:09;14.80;;;10.98;;
25525;SDS011;13424;48.424;11.258;2023-08-20T04:25:35;15.90;;;12.13;;
25525;SDS011;13424;48.424;11.258;2023-08-20T04:28:01;16.15;;;11.65;;
25525;SDS011;13424;48.424;11.258;2023-08-20T04:30:28;15.07;;;10.82;;
25525;SDS011;13424;48.424;11.258;2023-08-20T04:32:54;18.83;;;12.57;;
25525;SDS011;13424;48.424;11.258;2023-08-20T04:35:20;13.43;;;11.20;;
25525;SDS011;13424;48.424;11.258;2023-08-20T04:37:47;18.00;;;12.82;;
25525;SDS011;13424;48.424;11.258;2023-08-20T04:40:13;20.60;;;12.13;;
25525;SDS011;13424;48.424;11.258;2023-08-20T04:42:39;18.33;;;11.75;;
25525;SDS011;13424;48.424;11.258;2023-08-20T04:45:06;20.85;;;11.98;;
25525;SDS011;13424;48.424;11.258;2023-08-20T04:47:34;15.80;;;11.52;;
25525;SDS011;13424;48.424;11.258;2023-08-20T04:50:02;18.20;;;12.82;;
25525;SDS011;13424;48.424;11.258;2023-08-20T04:52:32;16.55;;;12.05;;
25525;SDS011;13424;48.424;11.258;2023-08-20T04:55:00;19.60;;;11.95;;
25525;SDS011;13424;48.424;11.258;2023-08-20T04:57:27;18.50;;;11.65;;
25525;SDS011;13424;48.424;11.258;2023-08-20T04:59:55;22.65;;;11.77;;
25525;SDS011;13424;48.424;11.258;2023-08-20T05:02:31;17.58;;;12.38;;
25525;SDS011;13424;48.424;11.258;2023-08-20T05:05:04;16.58;;;12.18;;
25525;SDS011;13424;48.424;11.258;2023-08-20T05:07:30;15.60;;;12.15;;
25525;SDS011;13424;48.424;11.258;2023-08-20T05:09:56;18.77;;;11.95;;
25525;SDS011;13424;48.424;11.258;2023-08-20T05:12:22;20.30;;;12.93;;
25525;SDS011;13424;48.424;11.258;2023-08-20T05:14:48;23.25;;;19.02;;
25525;SDS011;13424;48.424;11.258;2023-08-20T05:17:14;25.92;;;20.95;;
25525;SDS011;13424;48.424;11.258;2023-08-20T05:19:40;24.48;;;20.70;;
25525;SDS011;13424;48.424;11.258;2023-08-20T05:22:07;23.80;;;14.80;;
25525;SDS011;13424;48.424;11.258;2023-08-20T05:24:34;16.60;;;12.85;;
25525;SDS011;13424;48.424;11.258;2023-08-20T05:27:09;15.15;;;12.48;;
25525;SDS011;13424;48.424;11.258;2023-08-20T05:29:48;21.58;;;12.60;;
25525;SDS011;13424;48.424;11.258;2023-08-20T05:32:16;16.67;;;12.20;;
25525;SDS011;13424;48.424;11.258;2023-08-20T05:34:42;18.85;;;12.00;;
25525;SDS011;13424;48.424;11.258;2023-08-20T05:37:08;15.57;;;12.70;;
25525;SDS011;13424;48.424;11.258;2023-08-20T05:39:42;16.80;;;12.15;;
25525;SDS011;13424;48.424;11.258;2023-08-20T05:42:10;19.77;;;12.00;;
25525;SDS011;13424;48.424;11.258;2023-08-20T05:48:28;16.13;;;11.60;;
25525;SDS011;13424;48.424;11.258;2023-08-20T05:50:55;15.50;;;10.60;;
25525;SDS011;13424;48.424;11.258;2023-08-20T05:53:22;15.60;;;10.55;;
25525;SDS011;13424;48.424;11.258;2023-08-20T05:55:48;16.00;;;11.93;;
25525;SDS011;13424;48.424;11.258;2023-08-20T05:58:24;17.25;;;10.95;;
25525;SDS011;13424;48.424;11.258;2023-08-20T06:00:51;16.17;;;11.05;;
25525;SDS011;13424;48.424;11.258;2023-08-20T06:03:17;12.95;;;11.55;;
25525;SDS011;13424;48.424;11.258;2023-08-20T06:05:43;14.90;;;11.60;;
25525;SDS011;13424;48.424;11.258;2023-08-20T06:08:08;21.27;;;11.70;;
25525;SDS011;13424;48.424;11.258;2023-08-20T06:10:34;18.50;;;11.68;;
25525;SDS011;13424;48.424;11.258;2023-08-20T06:13:00;18.77;;;11.73;;
25525;SDS011;13424;48.424;11.258;2023-08-20T06:15:26;14.85;;;11.05;;
25525;SDS011;13424;48.424;11.258;2023-08-20T06:17:52;21.58;;;14.38;;
25525;SDS011;13424;48.424;11.258;2023-08-20T06:20:21;15.85;;;11.55;;
25525;SDS011;13424;48.424;11.258;2023-08-20T06:22:47;17.35;;;11.63;;
25525;SDS011;13424;48.424;11.258;2023-08-20T06:25:13;18.48;;;10.57;;
25525;SDS011;13424;48.424;11.258;2023-08-20T06:27:39;18.30;;;11.65;;
25525;SDS011;13424;48.424;11.258;2023-08-20T06:30:06;18.00;;;11.35;;
25525;SDS011;13424;48.424;11.258;2023-08-20T06:32:34;20.63;;;11.73;;
25525;SDS011;13424;48.424;11.258;2023-08-20T06:35:00;23.15;;;11.18;;
25525;SDS011;13424;48.424;11.258;2023-08-20T06:37:26;13.32;;;9.93;;
25525;SDS011;13424;48.424;11.258;2023-08-20T06:39:52;16.52;;;10.05;;
25525;SDS011;13424;48.424;11.258;2023-08-20T06:42:18;14.13;;;11.32;;
25525;SDS011;13424;48.424;11.258;2023-08-20T06:48:28;11.50;;;8.88;;
25525;SDS011;13424;48.424;11.258;2023-08-20T06:50:54;17.08;;;10.25;;
25525;SDS011;13424;48.424;11.258;2023-08-20T06:53:20;15.65;;;10.35;;
25525;SDS011;13424;48.424;11.258;2023-08-20T06:58:53;12.95;;;9.68;;
25525;SDS011;13424;48.424;11.258;2023-08-20T07:01:19;12.20;;;9.48;;
25525;SDS011;13424;48.424;11.258;2023-08-20T07:03:45;11.70;;;9.32;;
25525;SDS011;13424;48.424;11.258;2023-08-20T07:06:11;13.48;;;8.50;;
25525;SDS011;13424;48.424;11.258;2023-08-20T07:08:39;11.73;;;9.00;;
25525;SDS011;13424;48.424;11.258;2023-08-20T07:11:06;14.10;;;9.70;;
25525;SDS011;13424;48.424;11.258;2023-08-20T07:13:32;10.25;;;8.65;;
25525;SDS011;13424;48.424;11.258;2023-08-20T07:15:59;17.42;;;9.82;;
25525;SDS011;13424;48.424;11.258;2023-08-20T07:18:25;14.98;;;9.30;;
25525;SDS011;13424;48.424;11.258;2023-08-20T07:20:52;11.23;;;7.43;;
25525;SDS011;13424;48.424;11.258;2023-08-20T07:23:18;11.52;;;7.97;;
25525;SDS011;13424;48.424;11.258;2023-08-20T07:25:44;11.43;;;8.38;;
25525;SDS011;13424;48.424;11.258;2023-08-20T07:28:10;8.65;;;7.15;;
25525;SDS011;13424;48.424;11.258;2023-08-20T07:30:36;12.18;;;7.90;;
25525;SDS011;13424;48.424;11.258;2023-08-20T07:33:03;11.73;;;7.93;;
25525;SDS011;13424;48.424;11.258;2023-08-20T07:35:29;14.52;;;7.93;;
25525;SDS011;13424;48.424;11.258;2023-08-20T07:37:55;12.73;;;7.63;;
25525;SDS011;13424;48.424;11.258;2023-08-20T07:40:27;12.48;;;7.40;;
25525;SDS011;13424;48.424;11.258;2023-08-20T07:42:53;12.32;;;7.60;;
25525;SDS011;13424;48.424;11.258;2023-08-20T07:48:45;12.20;;;7.70;;
25525;SDS011;13424;48.424;11.258;2023-08-20T07:51:11;14.75;;;7.97;;
25525;SDS011;13424;48.424;11.258;2023-08-20T07:53:37;9.15;;;6.78;;
25525;SDS011;13424;48.424;11.258;2023-08-20T07:56:03;9.70;;;7.45;;
25525;SDS011;13424;48.424;11.258;2023-08-20T07:58:29;16.50;;;7.30;;
25525;SDS011;13424;48.424;11.258;2023-08-20T08:00:55;11.35;;;7.60;;
25525;SDS011;13424;48.424;11.258;2023-08-20T08:03:24;12.43;;;7.78;;
25525;SDS011;13424;48.424;11.258;2023-08-20T08:05:54;10.90;;;7.20;;
25525;SDS011;13424;48.424;11.258;2023-08-20T08:08:20;14.68;;;7.80;;
25525;SDS011;13424;48.424;11.258;2023-08-20T08:10:47;10.55;;;6.57;;
25525;SDS011;13424;48.424;11.258;2023-08-20T08:13:16;12.63;;;6.45;;
25525;SDS011;13424;48.424;11.258;2023-08-20T08:18:58;8.43;;;6.50;;
25525;SDS011;13424;48.424;11.258;2023-08-20T08:21:24;10.55;;;6.78;;
25525;SDS011;13424;48.424;11.258;2023-08-20T08:23:50;9.27;;;5.95;;
25525;SDS011;13424;48.424;11.258;2023-08-20T08:26:16;13.60;;;6.55;;
25525;SDS011;13424;48.424;11.258;2023-08-20T08:28:42;8.98;;;6.72;;
25525;SDS011;13424;48.424;11.258;2023-08-20T08:31:08;15.30;;;6.82;;
25525;SDS011;13424;48.424;11.258;2023-08-20T08:33:34;13.27;;;6.90;;
25525;SDS011;13424;48.424;11.258;2023-08-20T08:36:00;13.40;;;6.35;;
25525;SDS011;13424;48.424;11.258;2023-08-20T08:38:26;7.72;;;6.03;;
25525;SDS011;13424;48.424;11.258;2023-08-20T08:40:52;11.55;;;6.53;;
25525;SDS011;13424;48.424;11.258;2023-08-20T08:43:18;11.80;;;7.38;;
25525;SDS011;13424;48.424;11.258;2023-08-20T08:45:47;6.65;;;5.72;;
25525;SDS011;13424;48.424;11.258;2023-08-20T08:48:14;10.20;;;6.47;;
25525;SDS011;13424;48.424;11.258;2023-08-20T08:50:43;10.93;;;6.82;;
25525;SDS011;13424;48.424;11.258;2023-08-20T08:53:09;7.38;;;6.55;;
25525;SDS011;13424;48.424;11.258;2023-08-20T08:55:38;7.05;;;6.32;;
25525;SDS011;13424;48.424;11.258;2023-08-20T08:58:04;10.13;;;6.53;;
25525;SDS011;13424;48.424;11.258;2023-08-20T09:00:30;11.43;;;6.63;;
25525;SDS011;13424;48.424;11.258;2023-08-20T09:02:58;7.75;;;5.78;;
25525;SDS011;13424;48.424;11.258;2023-08-20T09:05:24;9.65;;;6.75;;
25525;SDS011;13424;48.424;11.258;2023-08-20T09:07:56;8.15;;;6.22;;
25525;SDS011;13424;48.424;11.258;2023-08-20T09:10:27;11.25;;;6.45;;
25525;SDS011;13424;48.424;11.258;2023-08-20T09:12:54;7.30;;;5.97;;
25525;SDS011;13424;48.424;11.258;2023-08-20T09:15:22;9.98;;;6.82;;
25525;SDS011;13424;48.424;11.258;2023-08-20T09:18:01;9.32;;;7.13;;
25525;SDS011;13424;48.424;11.258;2023-08-20T09:20:35;7.55;;;5.95;;
25525;SDS011;13424;48.424;11.258;2023-08-20T09:23:03;7.25;;;6.25;;
25525;SDS011;13424;48.424;11.258;2023-08-20T09:25:39;8.15;;;5.88;;
25525;SDS011;13424;48.424;11.258;2023-08-20T09:28:10;9.55;;;5.85;;
25525;SDS011;13424;48.424;11.258;2023-08-20T09:30:36;7.15;;;6.15;;
25525;SDS011;13424;48.424;11.258;2023-08-20T09:33:09;8.63;;;6.57;;
25525;SDS011;13424;48.424;11.258;2023-08-20T09:35:37;9.45;;;6.60;;
25525;SDS011;13424;48.424;11.258;2023-08-20T09:38:03;10.00;;;6.05;;
25525;SDS011;13424;48.424;11.258;2023-08-20T09:40:30;7.00;;;6.30;;
25525;SDS011;13424;48.424;11.258;2023-08-20T09:42:57;9.45;;;7.13;;
25525;SDS011;13424;48.424;11.258;2023-08-20T09:45:28;12.68;;;6.43;;
25525;SDS011;13424;48.424;11.258;2023-08-20T09:47:55;11.25;;;6.03;;
25525;SDS011;13424;48.424;11.258;2023-08-20T09:50:23;11.50;;;6.97;;
25525;SDS011;13424;48.424;11.258;2023-08-20T09:55:35;8.23;;;6.75;;
25525;SDS011;13424;48.424;11.258;2023-08-20T09:58:03;7.43;;;6.60;;
25525;SDS011;13424;48.424;11.258;2023-08-20T10:00:31;7.95;;;6.32;;
25525;SDS011;13424;48.424;11.258;2023-08-20T10:02:58;8.25;;;7.45;;
25525;SDS011;13424;48.424;11.258;2023-08-20T10:05:31;9.48;;;6.82;;
25525;SDS011;13424;48.424;11.258;2023-08-20T10:07:58;7.30;;;6.40;;
25525;SDS011;13424;48.424;11.258;2023-08-20T10:10:26;7.30;;;6.00;;
25525;SDS011;13424;48.424;11.258;2023-08-20T10:12:52;6.70;;;6.07;;
25525;SDS011;13424;48.424;11.258;2023-08-20T10:15:18;9.90;;;6.00;;
25525;SDS011;13424;48.424;11.258;2023-08-20T10:17:45;8.27;;;6.18;;
25525;SDS011;13424;48.424;11.258;2023-08-20T10:20:13;12.55;;;6.85;;
25525;SDS011;13424;48.424;11.258;2023-08-20T10:22:44;9.43;;;6.35;;
25525;SDS011;13424;48.424;11.258;2023-08-20T10:25:12;6.25;;;5.60;;
25525;SDS011;13424;48.424;11.258;2023-08-20T10:27:48;8.43;;;5.70;;
25525;SDS011;13424;48.424;11.258;2023-08-20T10:30:18;6.85;;;5.65;;
25525;SDS011;13424;48.424;11.258;2023-08-20T10:32:51;8.77;;;5.88;;
25525;SDS011;13424;48.424;11.258;2023-08-20T10:38:08;8.20;;;5.68;;
25525;SDS011;13424;48.424;11.258;2023-08-20T10:40:58;5.80;;;5.30;;
25525;SDS011;13424;48.424;11.258;2023-08-20T10:43:28;5.65;;;4.97;;
25525;SDS011;13424;48.424;11.258;2023-08-20T10:46:03;10.32;;;6.20;;
25525;SDS011;13424;48.424;11.258;2023-08-20T10:48:52;6.18;;;5.15;;
25525;SDS011;13424;48.424;11.258;2023-08-20T10:51:35;6.60;;;6.00;;
25525;SDS011;13424;48.424;11.258;2023-08-20T10:54:04;9.02;;;5.53;;
25525;SDS011;13424;48.424;11.258;2023-08-20T10:59:25;8.38;;;6.05;;
25525;SDS011;13424;48.424;11.258;2023-08-20T11:01:54;7.60;;;5.35;;
25525;SDS011;13424;48.424;11.258;2023-08-20T11:04:27;5.18;;;4.78;;
25525;SDS011;13424;48.424;11.258;2023-08-20T11:06:58;7.95;;;5.07;;
25525;SDS011;13424;48.424;11.258;2023-08-20T11:12:40;7.10;;;5.57;;
25525;SDS011;13424;48.424;11.258;2023-08-20T11:15:13;7.68;;;5.30;;
25525;SDS011;13424;48.424;11.258;2023-08-20T11:17:43;7.70;;;4.85;;
25525;SDS011;13424;48.424;11.258;2023-08-20T11:20:13;6.95;;;4.80;;
25525;SDS011;13424;48.424;11.258;2023-08-20T11:22:40;6.85;;;4.82;;
25525;SDS011;13424;48.424;11.258;2023-08-20T11:25:12;6.72;;;4.60;;
25525;SDS011;13424;48.424;11.258;2023-08-20T11:27:45;10.93;;;5.00;;
25525;SDS011;13424;48.424;11.258;2023-08-20T11:30:11;7.18;;;5.45;;
25525;SDS011;13424;48.424;11.258;2023-08-20T11:32:38;9.70;;;5.45;;
25525;SDS011;13424;48.424;11.258;2023-08-20T11:35:05;8.63;;;5.28;;
25525;SDS011;13424;48.424;11.258;2023-08-20T11:37:33;8.45;;;5.70;;
25525;SDS011;13424;48.424;11.258;2023-08-20T11:39:59;8.98;;;4.88;;
25525;SDS011;13424;48.424;11.258;2023-08-20T11:42:25;8.60;;;5.15;;
25525;SDS011;13424;48.424;11.258;2023-08-20T11:44:54;5.82;;;5.25;;
25525;SDS011;13424;48.424;11.258;2023-08-20T11:47:23;6.90;;;4.85;;
25525;SDS011;13424;48.424;11.258;2023-08-20T11:50:01;9.18;;;5.40;;
25525;SDS011;13424;48.424;11.258;2023-08-20T11:52:32;6.90;;;5.32;;
25525;SDS011;13424;48.424;11.258;2023-08-20T11:54:59;6.60;;;5.32;;
25525;SDS011;13424;48.424;11.258;2023-08-20T11:57:26;9.55;;;5.90;;
25525;SDS011;13424;48.424;11.258;2023-08-20T11:59:54;10.02;;;4.85;;
25525;SDS011;13424;48.424;11.258;2023-08-20T12:02:26;6.68;;;5.97;;
25525;SDS011;13424;48.424;11.258;2023-08-20T12:04:55;5.78;;;5.22;;
25525;SDS011;13424;48.424;11.258;2023-08-20T12:07:25;6.60;;;5.40;;
25525;SDS011;13424;48.424;11.258;2023-08-20T12:09:53;8.63;;;5.13;;
25525;SDS011;13424;48.424;11.258;2023-08-20T12:12:21;7.18;;;5.47;;
25525;SDS011;13424;48.424;11.258;2023-08-20T12:14:47;7.47;;;5.78;;
25525;SDS011;13424;48.424;11.258;2023-08-20T12:17:20;6.18;;;5.55;;
25525;SDS011;13424;48.424;11.258;2023-08-20T12:19:46;7.22;;;5.45;;
25525;SDS011;13424;48.424;11.258;2023-08-20T12:22:12;8.15;;;5.72;;
25525;SDS011;13424;48.424;11.258;2023-08-20T12:24:38;7.28;;;5.30;;
25525;SDS011;13424;48.424;11.258;2023-08-20T12:27:04;7.88;;;5.47;;
25525;SDS011;13424;48.424;11.258;2023-08-20T12:29:30;6.28;;;5.35;;
25525;SDS011;13424;48.424;11.258;2023-08-20T12:31:56;6.63;;;4.93;;
25525;SDS011;13424;48.424;11.258;2023-08-20T12:34:24;9.35;;;5.30;;
25525;SDS011;13424;48.424;11.258;2023-08-20T12:36:51;6.32;;;5.10;;
25525;SDS011;13424;48.424;11.258;2023-08-20T12:39:17;6.22;;;5.63;;
25525;SDS011;13424;48.424;11.258;2023-08-20T12:41:43;7.53;;;5.03;;
25525;SDS011;13424;48.424;11.258;2023-08-20T12:44:09;8.60;;;5.05;;
25525;SDS011;13424;48.424;11.258;2023-08-20T12:46:35;9.93;;;5.03;;
25525;SDS011;13424;48.424;11.258;2023-08-20T12:49:01;6.18;;;5.03;;
25525;SDS011;13424;48.424;11.258;2023-08-20T12:51:27;6.90;;;5.03;;
25525;SDS011;13424;48.424;11.258;2023-08-20T12:53:53;9.85;;;6.07;;
25525;SDS011;13424;48.424;11.258;2023-08-20T12:56:19;9.77;;;5.38;;
25525;SDS011;13424;48.424;11.258;2023-08-20T12:58:45;7.20;;;4.93;;
25525;SDS011;13424;48.424;11.258;2023-08-20T13:01:11;5.03;;;4.45;;
25525;SDS011;13424;48.424;11.258;2023-08-20T13:03:37;5.45;;;4.93;;
25525;SDS011;13424;48.424;11.258;2023-08-20T13:06:04;9.15;;;4.53;;
25525;SDS011;13424;48.424;11.258;2023-08-20T13:08:36;6.20;;;5.28;;
25525;SDS011;13424;48.424;11.258;2023-08-20T13:11:03;8.43;;;4.68;;
25525;SDS011;13424;48.424;11.258;2023-08-20T13:13:41;9.48;;;5.38;;
25525;SDS011;13424;48.424;11.258;2023-08-20T13:16:08;6.53;;;4.93;;
25525;SDS011;13424;48.424;11.258;2023-08-20T13:18:35;9.10;;;5.38;;
25525;SDS011;13424;48.424;11.258;2023-08-20T13:21:01;7.50;;;5.13;;
25525;SDS011;13424;48.424;11.258;2023-08-20T13:23:29;5.60;;;5.10;;
25525;SDS011;13424;48.424;11.258;2023-08-20T13:25:55;6.57;;;5.10;;
25525;SDS011;13424;48.424;11.258;2023-08-20T13:28:21;9.63;;;5.13;;
25525;SDS011;13424;48.424;11.258;2023-08-20T13:30:47;8.18;;;5.43;;
25525;SDS011;13424;48.424;11.258;2023-08-20T13:33:13;6.70;;;4.45;;
25525;SDS011;13424;48.424;11.258;2023-08-20T13:35:40;8.23;;;4.82;;
25525;SDS011;13424;48.424;11.258;2023-08-20T13:38:07;7.63;;;4.93;;
25525;SDS011;13424;48.424;11.258;2023-08-20T13:40:33;8.35;;;4.70;;
25525;SDS011;13424;48.424;11.258;2023-08-20T13:42:59;8.68;;;4.63;;
25525;SDS011;13424;48.424;11.258;2023-08-20T13:45:24;6.93;;;4.30;;
25525;SDS011;13424;48.424;11.258;2023-08-20T13:47:50;6.18;;;4.57;;
25525;SDS011;13424;48.424;11.258;2023-08-20T13:50:16;9.35;;;5.20;;
25525;SDS011;13424;48.424;11.258;2023-08-20T13:52:42;8.10;;;4.70;;
25525;SDS011;13424;48.424;11.258;2023-08-20T13:55:42;5.18;;;4.53;;
25525;SDS011;13424;48.424;11.258;2023-08-20T13:58:08;5.28;;;4.72;;
25525;SDS011;13424;48.424;11.258;2023-08-20T14:00:34;6.30;;;4.68;;
25525;SDS011;13424;48.424;11.258;2023-08-20T14:03:00;5.97;;;4.53;;
25525;SDS011;13424;48.424;11.258;2023-08-20T14:05:26;4.93;;;4.47;;
25525;SDS011;13424;48.424;11.258;2023-08-20T14:07:54;5.15;;;4.60;;
25525;SDS011;13424;48.424;11.258;2023-08-20T14:10:20;5.40;;;4.88;;
25525;SDS011;13424;48.424;11.258;2023-08-20T14:12:47;7.32;;;5.03;;
25525;SDS011;13424;48.424;11.258;2023-08-20T14:15:13;5.88;;;5.07;;
25525;SDS011;13424;48.424;11.258;2023-08-20T14:21:27;9.80;;;4.70;;
25525;SDS011;13424;48.424;11.258;2023-08-20T14:23:53;4.93;;;4.40;;
25525;SDS011;13424;48.424;11.258;2023-08-20T14:26:19;5.90;;;4.45;;
25525;SDS011;13424;48.424;11.258;2023-08-20T14:28:45;7.45;;;4.70;;
25525;SDS011;13424;48.424;11.258;2023-08-20T14:31:11;8.02;;;4.32;;
25525;SDS011;13424;48.424;11.258;2023-08-20T14:33:37;5.95;;;4.75;;
25525;SDS011;13424;48.424;11.258;2023-08-20T14:36:03;8.43;;;4.22;;
25525;SDS011;13424;48.424;11.258;2023-08-20T14:38:29;7.20;;;4.75;;
25525;SDS011;13424;48.424;11.258;2023-08-20T14:41:02;5.32;;;4.93;;
25525;SDS011;13424;48.424;11.258;2023-08-20T14:43:29;9.38;;;6.20;;
25525;SDS011;13424;48.424;11.258;2023-08-20T14:45:56;6.75;;;5.00;;
25525;SDS011;13424;48.424;11.258;2023-08-20T14:48:22;8.10;;;5.22;;
25525;SDS011;13424;48.424;11.258;2023-08-20T14:50:52;6.00;;;4.65;;
25525;SDS011;13424;48.424;11.258;2023-08-20T14:53:18;7.40;;;5.07;;
25525;SDS011;13424;48.424;11.258;2023-08-20T14:55:44;7.18;;;4.97;;
25525;SDS011;13424;48.424;11.258;2023-08-20T14:58:11;7.03;;;5.88;;
25525;SDS011;13424;48.424;11.258;2023-08-20T15:00:37;5.93;;;5.32;;
25525;SDS011;13424;48.424;11.258;2023-08-20T15:03:04;7.75;;;5.75;;
25525;SDS011;13424;48.424;11.258;2023-08-20T15:05:31;7.35;;;4.85;;
25525;SDS011;13424;48.424;11.258;2023-08-20T15:07:57;6.25;;;5.28;;
25525;SDS011;13424;48.424;11.258;2023-08-20T15:10:23;10.10;;;5.95;;
25525;SDS011;13424;48.424;11.258;2023-08-20T15:12:49;6.50;;;4.93;;
25525;SDS011;13424;48.424;11.258;2023-08-20T15:15:15;9.43;;;5.25;;
25525;SDS011;13424;48.424;11.258;2023-08-20T15:17:41;5.47;;;4.85;;
25525;SDS011;13424;48.424;11.258;2023-08-20T15:20:08;5.93;;;5.43;;
25525;SDS011;13424;48.424;11.258;2023-08-20T15:22:36;5.57;;;4.68;;